createdAt,value
2022-12-17T00:02:45.279Z,20.92
2022-12-17T00:05:32.325Z,19.60
2022-12-17T00:08:29.080Z,18.35
2022-12-17T00:11:18.868Z,20.48
2022-12-17T00:14:05.945Z,18.50
2022-12-17T00:16:53.284Z,19.70
2022-12-17T00:19:40.868Z,16.48
2022-12-17T00:22:27.825Z,14.52
2022-12-17T00:25:15.139Z,14.77
2022-12-17T00:28:02.386Z,15.15
2022-12-17T00:30:49.272Z,16.00
2022-12-17T00:33:36.543Z,15.05
2022-12-17T00:36:24.020Z,18.63
2022-12-17T00:39:13.689Z,19.02
2022-12-17T00:42:00.913Z,19.75
2022-12-17T00:44:47.808Z,19.48
2022-12-17T00:47:35.040Z,19.25
2022-12-17T00:50:22.114Z,20.05
2022-12-17T00:53:11.900Z,21.35
2022-12-17T00:55:59.917Z,19.33
2022-12-17T00:58:46.947Z,20.15
2022-12-17T01:01:34.485Z,20.35
2022-12-17T01:04:21.632Z,20.33
2022-12-17T01:07:08.974Z,22.20
2022-12-17T01:10:01.575Z,24.05
2022-12-17T01:12:48.464Z,22.40
2022-12-17T01:15:35.727Z,16.88
2022-12-17T01:18:23.128Z,16.85
2022-12-17T01:21:16.925Z,15.80
2022-12-17T01:24:05.190Z,14.68
2022-12-17T01:26:52.278Z,15.68
2022-12-17T01:29:39.156Z,14.57
2022-12-17T01:32:26.335Z,16.33
2022-12-17T01:35:13.259Z,15.50
2022-12-17T01:38:00.216Z,15.35
2022-12-17T01:40:47.438Z,15.02
2022-12-17T01:43:50.693Z,14.70
2022-12-17T01:46:38.392Z,13.80
2022-12-17T01:49:26.336Z,14.88
2022-12-17T01:52:14.139Z,13.15
2022-12-17T01:55:04.467Z,14.43
2022-12-17T01:57:52.041Z,14.10
2022-12-17T02:00:40.155Z,13.98
2022-12-17T02:03:35.577Z,13.73
2022-12-17T02:06:51.110Z,13.20
2022-12-17T02:09:53.128Z,13.32
2022-12-17T02:12:59.995Z,12.98
2022-12-17T02:16:12.319Z,14.73
2022-12-17T02:19:12.492Z,14.93
2022-12-17T02:22:00.652Z,11.65
2022-12-17T02:25:37.468Z,15.05
2022-12-17T02:28:25.161Z,13.02
2022-12-17T02:31:12.927Z,13.18
2022-12-17T02:34:01.472Z,12.27
2022-12-17T02:36:48.485Z,13.05
2022-12-17T02:39:35.742Z,13.63
2022-12-17T02:42:23.197Z,13.23
2022-12-17T02:45:10.807Z,14.55
2022-12-17T02:47:58.121Z,13.90
2022-12-17T02:50:45.351Z,12.55
2022-12-17T02:53:33.685Z,13.80
2022-12-17T02:56:20.922Z,14.57
2022-12-17T02:59:08.213Z,14.88
2022-12-17T03:01:55.607Z,18.55
2022-12-17T03:04:42.692Z,15.02
2022-12-17T03:07:29.670Z,16.20
2022-12-17T03:10:17.288Z,15.27
2022-12-17T03:13:04.698Z,16.35
2022-12-17T03:15:51.661Z,14.88
2022-12-17T03:18:38.869Z,15.32
2022-12-17T03:21:26.285Z,13.63
2022-12-17T03:24:13.036Z,13.32
2022-12-17T03:27:00.466Z,14.13
2022-12-17T03:29:47.395Z,14.13
2022-12-17T03:32:34.372Z,15.85
2022-12-17T03:35:21.451Z,13.65
2022-12-17T03:38:08.977Z,14.30
2022-12-17T03:40:56.216Z,12.73
2022-12-17T03:43:43.255Z,12.57
2022-12-17T03:46:30.874Z,12.05
2022-12-17T03:49:17.968Z,12.45
2022-12-17T03:52:05.332Z,10.95
2022-12-17T03:54:52.554Z,12.48
2022-12-17T03:57:39.698Z,10.20
2022-12-17T04:00:27.836Z,11.30
2022-12-17T04:03:15.378Z,9.70
2022-12-17T04:06:03.316Z,12.60
2022-12-17T04:08:50.312Z,11.82
2022-12-17T04:11:38.822Z,9.93
2022-12-17T04:14:26.283Z,11.10
2022-12-17T04:17:13.410Z,11.02
2022-12-17T04:20:20.578Z,11.15
2022-12-17T04:23:07.528Z,10.60
2022-12-17T04:25:54.953Z,11.90
2022-12-17T04:28:42.361Z,10.98
2022-12-17T04:31:29.275Z,11.40
2022-12-17T04:34:16.270Z,10.35
2022-12-17T04:37:03.549Z,10.82
2022-12-17T04:39:50.793Z,10.90
2022-12-17T04:42:37.984Z,10.45
2022-12-17T04:45:25.562Z,12.13
2022-12-17T04:48:21.686Z,14.23
2022-12-17T04:51:08.892Z,11.18
2022-12-17T04:53:55.922Z,11.63
2022-12-17T04:56:43.104Z,11.30
2022-12-17T04:59:30.364Z,9.65
2022-12-17T05:02:17.733Z,9.93
2022-12-17T05:05:04.865Z,9.98
2022-12-17T05:07:51.789Z,10.57
2022-12-17T05:10:38.982Z,10.57
2022-12-17T05:13:26.114Z,10.27
2022-12-17T05:16:16.908Z,10.68
2022-12-17T05:19:03.862Z,9.70
2022-12-17T05:21:50.832Z,10.90
2022-12-17T05:24:37.913Z,10.48
2022-12-17T05:27:35.880Z,10.10
2022-12-17T05:30:23.121Z,9.85
2022-12-17T05:33:19.009Z,12.48
2022-12-17T05:36:06.160Z,9.95
2022-12-17T05:38:53.723Z,9.95
2022-12-17T05:41:40.715Z,10.73
2022-12-17T05:44:27.892Z,10.50
2022-12-17T05:47:15.110Z,9.32
2022-12-17T05:50:02.387Z,9.90
2022-12-17T05:52:50.030Z,10.57
2022-12-17T05:55:37.166Z,10.00
2022-12-17T05:58:25.998Z,10.13
2022-12-17T06:01:20.855Z,11.07
2022-12-17T06:04:07.763Z,12.20
2022-12-17T06:06:55.601Z,9.55
2022-12-17T06:09:42.642Z,8.80
2022-12-17T06:12:30.011Z,8.73
2022-12-17T06:15:17.186Z,8.60
2022-12-17T06:18:17.099Z,9.77
2022-12-17T06:21:05.024Z,8.70
2022-12-17T06:23:52.167Z,10.10
2022-12-17T06:26:39.406Z,6.82
2022-12-17T06:29:26.311Z,7.00
2022-12-17T06:32:13.388Z,8.10
2022-12-17T06:35:00.466Z,7.45
2022-12-17T06:37:47.575Z,7.97
2022-12-17T06:40:34.614Z,7.90
2022-12-17T06:43:21.906Z,9.27
2022-12-17T06:46:11.203Z,8.05
2022-12-17T06:48:58.389Z,8.85
2022-12-17T06:51:45.900Z,7.45
2022-12-17T06:54:33.137Z,9.20
2022-12-17T06:57:20.730Z,8.98
2022-12-17T07:00:07.543Z,8.70
2022-12-17T07:02:54.832Z,11.73
2022-12-17T07:05:42.746Z,12.27
2022-12-17T07:08:29.557Z,11.63
2022-12-17T07:11:19.763Z,11.77
2022-12-17T07:14:07.144Z,11.25
2022-12-17T07:16:54.453Z,10.95
2022-12-17T07:19:41.445Z,12.05
2022-12-17T07:22:28.623Z,10.65
2022-12-17T07:25:15.851Z,12.30
2022-12-17T07:28:02.994Z,12.57
2022-12-17T07:30:55.514Z,14.25
2022-12-17T07:33:42.578Z,14.02
2022-12-17T07:36:29.871Z,14.18
2022-12-17T07:39:17.067Z,14.90
2022-12-17T07:42:04.384Z,7.93
2022-12-17T07:44:51.459Z,7.57
2022-12-17T07:47:38.748Z,6.30
2022-12-17T07:50:26.243Z,6.75
2022-12-17T07:53:23.672Z,5.90
2022-12-17T07:56:11.498Z,5.78
2022-12-17T07:58:59.284Z,5.63
2022-12-17T08:01:46.410Z,5.53
2022-12-17T08:04:33.534Z,6.25
2022-12-17T08:07:20.538Z,5.70
2022-12-17T08:10:07.677Z,6.00
2022-12-17T08:12:54.757Z,6.82
2022-12-17T08:15:41.821Z,6.10
2022-12-17T08:18:29.017Z,6.15
2022-12-17T08:21:15.977Z,6.53
2022-12-17T08:24:02.967Z,7.43
2022-12-17T08:26:49.749Z,5.80
2022-12-17T08:29:37.359Z,7.60
2022-12-17T08:32:24.373Z,6.65
2022-12-17T08:35:11.385Z,7.15
2022-12-17T08:37:58.681Z,7.15
2022-12-17T08:40:45.885Z,7.18
2022-12-17T08:43:33.435Z,6.75
2022-12-17T08:46:20.781Z,7.20
2022-12-17T08:49:07.837Z,7.50
2022-12-17T08:51:55.265Z,6.88
2022-12-17T08:54:42.436Z,6.90
2022-12-17T08:57:43.442Z,6.75
2022-12-17T09:00:31.101Z,7.05
2022-12-17T09:03:19.272Z,7.32
2022-12-17T09:06:06.834Z,6.93
2022-12-17T09:08:54.050Z,8.75
2022-12-17T09:11:41.279Z,6.80
2022-12-17T09:14:28.243Z,7.13
2022-12-17T09:17:15.452Z,7.63
2022-12-17T09:20:02.616Z,7.75
2022-12-17T09:22:49.679Z,7.60
2022-12-17T09:25:37.076Z,7.55
2022-12-17T09:28:24.815Z,7.57
2022-12-17T09:31:12.204Z,6.82
2022-12-17T09:34:16.627Z,8.02
2022-12-17T09:37:03.664Z,7.70
2022-12-17T09:40:07.879Z,6.85
2022-12-17T09:43:22.132Z,6.90
2022-12-17T09:46:09.458Z,7.50
2022-12-17T09:49:19.666Z,7.25
2022-12-17T09:52:07.377Z,7.32
2022-12-17T09:55:02.896Z,7.35
2022-12-17T09:57:53.500Z,6.57
2022-12-17T10:00:46.164Z,7.57
2022-12-17T10:03:33.495Z,7.95
2022-12-17T10:06:28.597Z,8.27
2022-12-17T10:09:20.734Z,7.80
2022-12-17T10:12:08.306Z,7.30
2022-12-17T10:14:55.431Z,7.95
2022-12-17T10:17:45.173Z,7.50
2022-12-17T10:20:44.077Z,7.35
2022-12-17T10:23:41.912Z,7.40
2022-12-17T10:26:29.033Z,9.23
2022-12-17T10:29:36.261Z,9.20
2022-12-17T10:32:35.158Z,8.75
2022-12-17T10:35:42.262Z,8.40
2022-12-17T10:38:50.108Z,9.20
2022-12-17T10:41:42.995Z,11.93
2022-12-17T10:45:06.990Z,13.25
2022-12-17T10:47:54.069Z,8.98
2022-12-17T10:50:43.890Z,8.30
2022-12-17T10:53:41.102Z,8.45
2022-12-17T10:56:42.141Z,7.85
2022-12-17T10:59:44.632Z,6.97
2022-12-17T11:02:47.076Z,7.63
2022-12-17T11:05:59.584Z,6.93
2022-12-17T11:08:49.776Z,7.47
2022-12-17T11:11:37.943Z,6.82
2022-12-17T11:14:28.905Z,7.03
2022-12-17T11:17:19.588Z,6.47
2022-12-17T11:20:43.802Z,6.35
2022-12-17T11:23:39.328Z,7.45
2022-12-17T11:26:38.582Z,5.85
2022-12-17T11:29:30.523Z,6.78
2022-12-17T11:32:35.987Z,6.97
2022-12-17T11:35:52.967Z,7.15
2022-12-17T11:38:57.988Z,5.72
2022-12-17T11:44:53.171Z,5.90
2022-12-17T11:47:48.490Z,5.85
2022-12-17T11:50:47.362Z,6.18
2022-12-17T11:53:37.020Z,10.30
2022-12-17T11:57:05.105Z,6.70
2022-12-17T12:00:28.991Z,5.90
2022-12-17T12:03:51.416Z,5.65
2022-12-17T12:07:12.707Z,6.70
2022-12-17T12:10:22.014Z,5.65
2022-12-17T12:13:38.408Z,5.82
2022-12-17T12:16:28.232Z,5.32
2022-12-17T12:19:24.047Z,5.70
2022-12-17T12:22:16.624Z,5.78
2022-12-17T12:25:23.850Z,5.60
2022-12-17T12:28:24.774Z,6.07
2022-12-17T12:31:35.212Z,5.60
2022-12-17T12:34:36.904Z,5.22
2022-12-17T12:37:26.049Z,6.18
2022-12-17T12:40:44.982Z,6.28
2022-12-17T12:43:42.329Z,6.05
2022-12-17T12:46:50.742Z,5.93
2022-12-17T12:50:02.206Z,6.43
2022-12-17T12:52:50.819Z,6.57
2022-12-17T12:55:38.149Z,9.00
2022-12-17T12:58:44.635Z,8.10
2022-12-17T13:01:32.399Z,6.15
2022-12-17T13:04:22.497Z,6.63
2022-12-17T13:06:57.098Z,6.70
2022-12-17T13:09:35.440Z,7.20
2022-12-17T13:12:05.085Z,6.70
2022-12-17T13:14:54.066Z,8.02
2022-12-17T13:17:33.690Z,6.22
2022-12-17T13:20:22.147Z,6.78
2022-12-17T13:22:54.397Z,7.43
2022-12-17T13:25:24.997Z,7.05
2022-12-17T13:27:54.209Z,6.70
2022-12-17T13:30:35.835Z,7.65
2022-12-17T13:33:16.800Z,7.93
2022-12-17T13:36:04.500Z,8.25
2022-12-17T13:38:42.224Z,8.05
2022-12-17T13:41:19.608Z,8.70
2022-12-17T13:44:20.142Z,10.52
2022-12-17T13:46:51.140Z,11.27
2022-12-17T13:49:23.237Z,8.63
2022-12-17T13:52:22.419Z,8.25
2022-12-17T13:54:51.490Z,9.02
2022-12-17T13:57:27.448Z,9.20
2022-12-17T14:00:00.014Z,9.82
2022-12-17T14:02:35.073Z,10.10
2022-12-17T14:05:08.076Z,9.88
2022-12-17T14:07:40.441Z,9.27
2022-12-17T14:10:18.294Z,10.10
2022-12-17T14:12:48.259Z,9.48
2022-12-17T14:15:28.140Z,8.73
2022-12-17T14:17:59.927Z,8.40
2022-12-17T14:20:33.018Z,8.27
2022-12-17T14:23:26.517Z,8.05
2022-12-17T14:25:55.644Z,8.27
2022-12-17T14:28:37.617Z,9.10
2022-12-17T14:31:30.925Z,9.52
2022-12-17T14:34:14.347Z,8.45
2022-12-17T14:36:45.169Z,8.70
2022-12-17T14:39:45.310Z,7.55
2022-12-17T14:42:33.678Z,7.82
2022-12-17T14:45:07.377Z,8.57
2022-12-17T14:47:38.966Z,8.65
2022-12-17T14:50:34.656Z,8.75
2022-12-17T14:53:23.683Z,10.88
2022-12-17T14:55:59.637Z,9.27
2022-12-17T14:58:29.173Z,11.05
2022-12-17T15:01:10.606Z,10.35
2022-12-17T15:03:50.544Z,11.60
2022-12-17T15:06:21.414Z,9.10
2022-12-17T15:08:54.339Z,8.48
2022-12-17T15:11:25.329Z,9.57
2022-12-17T15:13:56.591Z,8.20
2022-12-17T15:16:25.963Z,9.27
2022-12-17T15:18:55.073Z,9.38
2022-12-17T15:21:26.244Z,9.05
2022-12-17T15:23:55.590Z,9.27
2022-12-17T15:26:25.584Z,8.75
2022-12-17T15:28:54.781Z,8.90
2022-12-17T15:31:26.082Z,8.82
2022-12-17T15:33:56.802Z,9.93
2022-12-17T15:36:26.053Z,9.18
2022-12-17T15:38:55.193Z,8.70
2022-12-17T15:41:42.403Z,10.40
2022-12-17T15:44:11.523Z,8.70
2022-12-17T15:46:40.783Z,9.70
2022-12-17T15:49:09.857Z,10.13
2022-12-17T15:51:38.868Z,10.20
2022-12-17T15:54:07.904Z,12.70
2022-12-17T15:56:38.277Z,11.80
2022-12-17T15:59:07.826Z,10.85
2022-12-17T16:01:37.697Z,11.48
2022-12-17T16:04:12.005Z,10.32
2022-12-17T16:06:45.197Z,8.80
2022-12-17T16:09:14.159Z,9.57
2022-12-17T16:11:43.039Z,8.85
2022-12-17T16:14:12.042Z,10.00
2022-12-17T16:16:41.004Z,11.65
2022-12-17T16:19:09.984Z,12.15
2022-12-17T16:21:44.949Z,12.43
2022-12-17T16:24:15.694Z,11.10
2022-12-17T16:26:44.775Z,11.88
2022-12-17T16:29:13.919Z,13.00
2022-12-17T16:31:43.172Z,11.45
2022-12-17T16:34:13.858Z,11.35
2022-12-17T16:36:43.466Z,9.65
2022-12-17T16:39:17.914Z,9.93
2022-12-17T16:41:47.790Z,10.10
2022-12-17T16:44:17.390Z,10.25
2022-12-17T16:46:49.782Z,10.10
2022-12-17T16:49:21.739Z,9.98
2022-12-17T16:51:57.825Z,10.23
2022-12-17T16:54:29.040Z,10.98
2022-12-17T16:56:58.226Z,11.32
2022-12-17T16:59:27.219Z,13.18
2022-12-17T17:01:58.030Z,13.88
2022-12-17T17:04:27.122Z,13.68
2022-12-17T17:06:58.535Z,15.80
2022-12-17T17:09:27.867Z,14.68
2022-12-17T17:11:58.247Z,15.23
2022-12-17T17:14:28.203Z,15.45
2022-12-17T17:16:57.225Z,15.25
2022-12-17T17:19:26.536Z,16.27
2022-12-17T17:21:56.804Z,14.77
2022-12-17T17:24:26.915Z,15.27
2022-12-17T17:26:57.412Z,17.48
2022-12-17T17:29:26.551Z,16.13
2022-12-17T17:32:12.872Z,16.35
2022-12-17T17:34:42.682Z,16.63
2022-12-17T17:37:11.712Z,17.15
2022-12-17T17:39:40.682Z,17.50
2022-12-17T17:42:10.060Z,17.45
2022-12-17T17:44:39.449Z,17.58
2022-12-17T17:47:08.415Z,16.88
2022-12-17T17:49:37.361Z,18.88
2022-12-17T17:52:10.595Z,17.92
2022-12-17T17:54:40.695Z,18.52
2022-12-17T17:57:10.529Z,16.95
2022-12-17T17:59:40.499Z,18.40
2022-12-17T18:02:12.042Z,17.27
2022-12-17T18:04:41.271Z,20.17
2022-12-17T18:07:27.214Z,19.75
2022-12-17T18:09:57.205Z,18.42
2022-12-17T18:12:44.069Z,20.02
2022-12-17T18:15:14.710Z,21.08
2022-12-17T18:17:46.623Z,20.02
2022-12-17T18:20:16.281Z,22.58
2022-12-17T18:22:47.162Z,22.33
2022-12-17T18:25:19.990Z,21.25
2022-12-17T18:27:49.177Z,21.33
2022-12-17T18:30:18.394Z,21.77
2022-12-17T18:32:53.165Z,20.92
2022-12-17T18:35:22.419Z,19.35
2022-12-17T18:37:51.312Z,20.15
2022-12-17T18:40:20.740Z,21.55
2022-12-17T18:43:07.625Z,20.55
2022-12-17T18:45:40.231Z,19.70
2022-12-17T18:48:10.233Z,20.83
2022-12-17T18:50:39.214Z,19.42
2022-12-17T18:53:08.376Z,24.55
2022-12-17T18:55:41.975Z,24.50
2022-12-17T18:58:11.511Z,21.90
2022-12-17T19:00:40.575Z,21.67
2022-12-17T19:03:11.247Z,21.48
2022-12-17T19:05:45.711Z,20.65
2022-12-17T19:08:15.573Z,21.25
2022-12-17T19:10:45.220Z,20.85
2022-12-17T19:13:14.235Z,24.20
2022-12-17T19:15:43.539Z,26.60
2022-12-17T19:18:12.457Z,21.70
2022-12-17T19:20:41.407Z,21.58
2022-12-17T19:23:10.316Z,20.75
2022-12-17T19:25:39.234Z,23.00
2022-12-17T19:28:08.156Z,22.75
2022-12-17T19:30:37.128Z,23.83
2022-12-17T19:33:09.638Z,22.65
2022-12-17T19:35:39.129Z,21.80
2022-12-17T19:38:08.102Z,21.15
2022-12-17T19:40:37.540Z,21.05
2022-12-17T19:43:07.314Z,21.25
2022-12-17T19:45:36.437Z,21.45
2022-12-17T19:48:05.494Z,21.75
2022-12-17T19:50:34.455Z,21.17
2022-12-17T19:53:03.378Z,20.60
2022-12-17T19:55:32.272Z,20.90
2022-12-17T19:58:01.358Z,21.38
2022-12-17T20:00:30.350Z,23.65
2022-12-17T20:03:00.553Z,21.80
2022-12-17T20:05:30.117Z,21.13
2022-12-17T20:07:59.140Z,19.95
2022-12-17T20:10:28.031Z,21.48
2022-12-17T20:12:56.914Z,20.80
2022-12-17T20:15:25.946Z,22.52
2022-12-17T20:17:54.892Z,22.88
2022-12-17T20:20:23.863Z,22.38
2022-12-17T20:22:52.775Z,20.90
2022-12-17T20:25:21.692Z,20.50
2022-12-17T20:27:51.025Z,23.00
2022-12-17T20:30:20.102Z,20.98
2022-12-17T20:32:49.299Z,21.85
2022-12-17T20:35:18.394Z,21.58
2022-12-17T20:37:47.336Z,22.08
2022-12-17T20:40:16.242Z,22.58
2022-12-17T20:42:45.808Z,22.45
2022-12-17T20:45:14.925Z,20.67
2022-12-17T20:47:43.826Z,21.90
2022-12-17T20:50:12.811Z,21.30
2022-12-17T20:52:41.925Z,21.83
2022-12-17T20:55:11.120Z,22.77
2022-12-17T20:57:40.286Z,23.45
2022-12-17T21:00:10.239Z,22.85
2022-12-17T21:02:39.745Z,21.10
2022-12-17T21:05:09.084Z,22.58
2022-12-17T21:07:38.100Z,20.98
2022-12-17T21:10:07.458Z,22.77
2022-12-17T21:12:54.595Z,22.90
2022-12-17T21:15:23.727Z,23.30
2022-12-17T21:17:52.836Z,22.20
2022-12-17T21:20:21.919Z,22.15
2022-12-17T21:22:50.927Z,20.08
2022-12-17T21:25:19.946Z,21.85
2022-12-17T21:27:48.930Z,20.65
2022-12-17T21:30:17.927Z,24.25
2022-12-17T21:32:46.823Z,23.33
2022-12-17T21:35:17.101Z,21.38
2022-12-17T21:37:46.526Z,20.40
2022-12-17T21:40:16.404Z,22.33
2022-12-17T21:43:03.710Z,22.27
2022-12-17T21:45:43.822Z,22.23
2022-12-17T21:48:15.108Z,21.67
2022-12-17T21:50:46.365Z,20.55
2022-12-17T21:53:16.353Z,22.35
2022-12-17T21:55:45.853Z,22.63
2022-12-17T21:58:16.445Z,22.25
2022-12-17T22:00:45.390Z,21.20
2022-12-17T22:03:14.405Z,23.50
2022-12-17T22:05:43.331Z,21.88
2022-12-17T22:08:13.948Z,21.70
2022-12-17T22:10:49.870Z,22.77
2022-12-17T22:14:00.543Z,23.30
2022-12-17T22:16:47.952Z,24.08
2022-12-17T22:19:22.549Z,25.25
2022-12-17T22:21:58.110Z,25.70
2022-12-17T22:24:27.399Z,25.42
2022-12-17T22:27:01.331Z,22.02
2022-12-17T22:29:49.037Z,25.73
2022-12-17T22:32:36.071Z,24.90
2022-12-17T22:36:38.210Z,26.23
2022-12-17T22:39:57.618Z,24.75
2022-12-17T22:44:30.302Z,27.25
2022-12-17T22:44:46.141Z,25.40
2022-12-17T22:46:22.643Z,27.42
2022-12-17T22:48:51.662Z,27.90
2022-12-17T22:51:26.974Z,27.15
2022-12-17T22:54:04.026Z,27.13
2022-12-17T22:56:55.166Z,27.27
2022-12-17T22:59:22.924Z,27.77
2022-12-17T23:01:51.870Z,25.50
2022-12-17T23:04:20.982Z,25.38
2022-12-17T23:06:50.061Z,26.35
2022-12-17T23:09:20.422Z,24.02
2022-12-17T23:11:50.602Z,23.80
2022-12-17T23:14:20.883Z,24.65
2022-12-17T23:16:50.004Z,24.02
2022-12-17T23:19:19.363Z,25.17
2022-12-17T23:21:48.508Z,24.77
2022-12-17T23:24:17.404Z,25.92
2022-12-17T23:26:46.482Z,27.40
2022-12-17T23:29:19.642Z,25.83
2022-12-17T23:31:49.239Z,25.02
2022-12-17T23:34:18.639Z,24.30
2022-12-17T23:36:47.580Z,24.35
2022-12-17T23:39:16.837Z,23.95
2022-12-17T23:41:46.287Z,23.63
2022-12-17T23:44:15.230Z,23.80
2022-12-17T23:46:44.400Z,24.52
2022-12-17T23:49:16.557Z,25.58
2022-12-17T23:51:45.708Z,25.48
2022-12-17T23:54:14.652Z,26.00
2022-12-17T23:56:43.538Z,22.13
2022-12-17T23:59:12.487Z,23.58
